sensor_id;sensor_type;location;lat;lon;timestamp;temperature;humidity
12446;DHT22;6287;50.984;7.022;2023-04-06T00:00:23;2.70;99.90
12446;DHT22;6287;50.984;7.022;2023-04-06T00:02:51;2.60;99.90
12446;DHT22;6287;50.984;7.022;2023-04-06T00:05:19;2.60;99.90
12446;DHT22;6287;50.984;7.022;2023-04-06T00:07:45;2.60;99.90
12446;DHT22;6287;50.984;7.022;2023-04-06T00:10:13;2.50;99.90
12446;DHT22;6287;50.984;7.022;2023-04-06T00:12:43;2.50;99.90
12446;DHT22;6287;50.984;7.022;2023-04-06T00:15:09;2.40;99.90
12446;DHT22;6287;50.984;7.022;2023-04-06T00:17:40;2.40;99.90
12446;DHT22;6287;50.984;7.022;2023-04-06T00:20:06;2.30;99.90
12446;DHT22;6287;50.984;7.022;2023-04-06T00:22:32;2.30;99.90
12446;DHT22;6287;50.984;7.022;2023-04-06T00:24:57;2.20;99.90
12446;DHT22;6287;50.984;7.022;2023-04-06T00:27:23;2.20;99.90
12446;DHT22;6287;50.984;7.022;2023-04-06T00:29:49;2.20;99.90
12446;DHT22;6287;50.984;7.022;2023-04-06T00:32:14;2.20;99.90
12446;DHT22;6287;50.984;7.022;2023-04-06T00:34:42;2.10;99.90
12446;DHT22;6287;50.984;7.022;2023-04-06T00:37:08;2.10;99.90
12446;DHT22;6287;50.984;7.022;2023-04-06T00:39:33;2.00;99.90
12446;DHT22;6287;50.984;7.022;2023-04-06T00:42:10;2.00;99.90
12446;DHT22;6287;50.984;7.022;2023-04-06T00:44:37;2.00;99.90
12446;DHT22;6287;50.984;7.022;2023-04-06T00:47:05;2.00;99.90
12446;DHT22;6287;50.984;7.022;2023-04-06T00:49:32;2.00;99.90
12446;DHT22;6287;50.984;7.022;2023-04-06T00:51:58;1.90;99.90
12446;DHT22;6287;50.984;7.022;2023-04-06T00:54:24;1.90;99.90
12446;DHT22;6287;50.984;7.022;2023-04-06T00:56:51;1.90;99.90
12446;DHT22;6287;50.984;7.022;2023-04-06T00:59:20;1.80;99.90
12446;DHT22;6287;50.984;7.022;2023-04-06T01:01:50;1.80;99.90
12446;DHT22;6287;50.984;7.022;2023-04-06T01:04:15;1.80;99.90
12446;DHT22;6287;50.984;7.022;2023-04-06T01:06:43;1.80;99.90
12446;DHT22;6287;50.984;7.022;2023-04-06T01:09:11;1.80;99.90
12446;DHT22;6287;50.984;7.022;2023-04-06T01:11:37;1.80;99.90
12446;DHT22;6287;50.984;7.022;2023-04-06T01:14:05;1.70;99.90
12446;DHT22;6287;50.984;7.022;2023-04-06T01:16:31;1.70;99.90
12446;DHT22;6287;50.984;7.022;2023-04-06T01:18:57;1.60;99.90
12446;DHT22;6287;50.984;7.022;2023-04-06T01:21:25;1.60;99.90
12446;DHT22;6287;50.984;7.022;2023-04-06T01:23:51;1.70;99.90
12446;DHT22;6287;50.984;7.022;2023-04-06T01:26:17;1.60;99.90
12446;DHT22;6287;50.984;7.022;2023-04-06T01:28:45;1.60;99.90
12446;DHT22;6287;50.984;7.022;2023-04-06T01:31:13;1.50;99.90
12446;DHT22;6287;50.984;7.022;2023-04-06T01:33:39;1.50;99.90
12446;DHT22;6287;50.984;7.022;2023-04-06T01:36:07;1.50;99.90
12446;DHT22;6287;50.984;7.022;2023-04-06T01:38:32;1.40;99.90
12446;DHT22;6287;50.984;7.022;2023-04-06T01:40:58;1.40;99.90
12446;DHT22;6287;50.984;7.022;2023-04-06T01:43:28;1.40;99.90
12446;DHT22;6287;50.984;7.022;2023-04-06T01:45:56;1.40;99.90
12446;DHT22;6287;50.984;7.022;2023-04-06T01:48:25;1.30;99.90
12446;DHT22;6287;50.984;7.022;2023-04-06T01:50:51;1.30;99.90
12446;DHT22;6287;50.984;7.022;2023-04-06T01:53:18;1.30;99.90
12446;DHT22;6287;50.984;7.022;2023-04-06T01:55:44;1.20;99.90
12446;DHT22;6287;50.984;7.022;2023-04-06T01:58:15;1.20;99.90
12446;DHT22;6287;50.984;7.022;2023-04-06T02:00:41;1.10;99.90
12446;DHT22;6287;50.984;7.022;2023-04-06T02:03:09;1.10;99.90
12446;DHT22;6287;50.984;7.022;2023-04-06T02:05:35;1.10;99.90
12446;DHT22;6287;50.984;7.022;2023-04-06T02:08:08;1.10;99.90
12446;DHT22;6287;50.984;7.022;2023-04-06T02:10:34;1.10;99.90
12446;DHT22;6287;50.984;7.022;2023-04-06T02:13:02;1.10;99.90
12446;DHT22;6287;50.984;7.022;2023-04-06T02:15:27;1.00;99.90
12446;DHT22;6287;50.984;7.022;2023-04-06T02:17:53;0.80;99.90
12446;DHT22;6287;50.984;7.022;2023-04-06T02:20:19;1.00;99.90
12446;DHT22;6287;50.984;7.022;2023-04-06T02:22:47;1.00;99.90
12446;DHT22;6287;50.984;7.022;2023-04-06T02:25:15;0.90;99.90
12446;DHT22;6287;50.984;7.022;2023-04-06T02:27:43;0.90;99.90
12446;DHT22;6287;50.984;7.022;2023-04-06T02:30:14;1.00;99.90
12446;DHT22;6287;50.984;7.022;2023-04-06T02:32:39;0.90;99.90
12446;DHT22;6287;50.984;7.022;2023-04-06T02:35:05;0.80;99.90
12446;DHT22;6287;50.984;7.022;2023-04-06T02:37:34;0.90;99.90
12446;DHT22;6287;50.984;7.022;2023-04-06T02:39:59;0.80;99.90
12446;DHT22;6287;50.984;7.022;2023-04-06T02:42:28;0.80;99.90
12446;DHT22;6287;50.984;7.022;2023-04-06T02:44:53;0.80;99.90
12446;DHT22;6287;50.984;7.022;2023-04-06T02:47:19;0.80;99.90
12446;DHT22;6287;50.984;7.022;2023-04-06T02:49:47;0.70;99.90
12446;DHT22;6287;50.984;7.022;2023-04-06T02:52:12;0.90;99.90
12446;DHT22;6287;50.984;7.022;2023-04-06T02:54:42;0.60;99.90
12446;DHT22;6287;50.984;7.022;2023-04-06T02:57:14;0.70;99.90
12446;DHT22;6287;50.984;7.022;2023-04-06T02:59:43;0.70;99.90
12446;DHT22;6287;50.984;7.022;2023-04-06T03:02:11;0.70;99.90
12446;DHT22;6287;50.984;7.022;2023-04-06T03:04:38;0.60;99.90
12446;DHT22;6287;50.984;7.022;2023-04-06T03:07:06;0.60;99.90
12446;DHT22;6287;50.984;7.022;2023-04-06T03:09:36;0.60;99.90
12446;DHT22;6287;50.984;7.022;2023-04-06T03:12:02;0.60;99.90
12446;DHT22;6287;50.984;7.022;2023-04-06T03:14:28;0.60;99.90
12446;DHT22;6287;50.984;7.022;2023-04-06T03:16:56;0.50;99.90
12446;DHT22;6287;50.984;7.022;2023-04-06T03:19:24;0.60;99.90
12446;DHT22;6287;50.984;7.022;2023-04-06T03:21:49;0.50;99.90
12446;DHT22;6287;50.984;7.022;2023-04-06T03:24:18;0.50;99.90
12446;DHT22;6287;50.984;7.022;2023-04-06T03:26:45;0.50;99.90
12446;DHT22;6287;50.984;7.022;2023-04-06T03:29:11;0.50;99.90
12446;DHT22;6287;50.984;7.022;2023-04-06T03:31:39;0.50;99.90
12446;DHT22;6287;50.984;7.022;2023-04-06T03:34:04;0.50;99.90
12446;DHT22;6287;50.984;7.022;2023-04-06T03:36:36;0.50;99.90
12446;DHT22;6287;50.984;7.022;2023-04-06T03:39:02;0.50;99.90
12446;DHT22;6287;50.984;7.022;2023-04-06T03:41:27;0.50;99.90
12446;DHT22;6287;50.984;7.022;2023-04-06T03:43:53;0.50;99.90
12446;DHT22;6287;50.984;7.022;2023-04-06T03:46:18;0.40;99.90
12446;DHT22;6287;50.984;7.022;2023-04-06T03:48:48;0.40;99.90
12446;DHT22;6287;50.984;7.022;2023-04-06T03:51:16;0.40;99.90
12446;DHT22;6287;50.984;7.022;2023-04-06T03:53:42;0.40;99.90
12446;DHT22;6287;50.984;7.022;2023-04-06T03:56:09;0.40;99.90
12446;DHT22;6287;50.984;7.022;2023-04-06T03:58:35;0.40;99.90
12446;DHT22;6287;50.984;7.022;2023-04-06T04:01:05;0.30;99.90
12446;DHT22;6287;50.984;7.022;2023-04-06T04:03:33;0.30;99.90
12446;DHT22;6287;50.984;7.022;2023-04-06T04:05:59;0.30;99.90
12446;DHT22;6287;50.984;7.022;2023-04-06T04:08:25;0.30;99.90
12446;DHT22;6287;50.984;7.022;2023-04-06T04:10:53;0.40;99.90
12446;DHT22;6287;50.984;7.022;2023-04-06T04:13:19;0.40;99.90
12446;DHT22;6287;50.984;7.022;2023-04-06T04:15:45;0.30;99.90
12446;DHT22;6287;50.984;7.022;2023-04-06T04:18:12;0.30;99.90
12446;DHT22;6287;50.984;7.022;2023-04-06T04:20:40;-0.10;99.90
12446;DHT22;6287;50.984;7.022;2023-04-06T04:23:08;0.30;99.90
12446;DHT22;6287;50.984;7.022;2023-04-06T04:25:34;0.30;99.90
12446;DHT22;6287;50.984;7.022;2023-04-06T04:28:02;0.30;99.90
12446;DHT22;6287;50.984;7.022;2023-04-06T04:30:28;0.30;99.90
12446;DHT22;6287;50.984;7.022;2023-04-06T04:32:53;0.30;99.90
12446;DHT22;6287;50.984;7.022;2023-04-06T04:35:19;0.30;99.90
12446;DHT22;6287;50.984;7.022;2023-04-06T04:37:47;0.40;99.90
12446;DHT22;6287;50.984;7.022;2023-04-06T04:40:17;0.30;99.90
12446;DHT22;6287;50.984;7.022;2023-04-06T04:42:43;0.30;99.90
12446;DHT22;6287;50.984;7.022;2023-04-06T04:45:09;0.30;99.90
12446;DHT22;6287;50.984;7.022;2023-04-06T04:47:34;0.30;99.90
12446;DHT22;6287;50.984;7.022;2023-04-06T04:50:00;0.30;99.90
12446;DHT22;6287;50.984;7.022;2023-04-06T04:52:26;0.30;99.90
12446;DHT22;6287;50.984;7.022;2023-04-06T04:54:51;0.30;99.90
12446;DHT22;6287;50.984;7.022;2023-04-06T04:57:17;0.30;99.90
12446;DHT22;6287;50.984;7.022;2023-04-06T04:59:43;0.30;99.90
12446;DHT22;6287;50.984;7.022;2023-04-06T05:02:08;0.30;99.90
12446;DHT22;6287;50.984;7.022;2023-04-06T05:04:35;0.30;99.90
12446;DHT22;6287;50.984;7.022;2023-04-06T05:07:07;0.40;99.90
12446;DHT22;6287;50.984;7.022;2023-04-06T05:09:35;0.40;99.90
12446;DHT22;6287;50.984;7.022;2023-04-06T05:12:03;0.40;99.90
12446;DHT22;6287;50.984;7.022;2023-04-06T05:14:31;0.40;99.90
12446;DHT22;6287;50.984;7.022;2023-04-06T05:17:00;0.40;99.90
12446;DHT22;6287;50.984;7.022;2023-04-06T05:19:27;0.50;99.90
12446;DHT22;6287;50.984;7.022;2023-04-06T05:21:56;0.50;99.90
12446;DHT22;6287;50.984;7.022;2023-04-06T05:24:23;0.50;99.90
12446;DHT22;6287;50.984;7.022;2023-04-06T05:26:49;0.60;99.90
12446;DHT22;6287;50.984;7.022;2023-04-06T05:29:18;0.60;99.90
12446;DHT22;6287;50.984;7.022;2023-04-06T05:31:47;0.50;99.90
12446;DHT22;6287;50.984;7.022;2023-04-06T05:34:14;0.70;99.90
12446;DHT22;6287;50.984;7.022;2023-04-06T05:36:42;0.70;99.90
12446;DHT22;6287;50.984;7.022;2023-04-06T05:39:07;0.80;99.90
12446;DHT22;6287;50.984;7.022;2023-04-06T05:41:33;0.80;99.90
12446;DHT22;6287;50.984;7.022;2023-04-06T05:43:59;0.90;99.90
12446;DHT22;6287;50.984;7.022;2023-04-06T05:46:24;1.00;99.90
12446;DHT22;6287;50.984;7.022;2023-04-06T05:48:52;1.10;99.90
12446;DHT22;6287;50.984;7.022;2023-04-06T05:51:18;1.10;99.90
12446;DHT22;6287;50.984;7.022;2023-04-06T05:53:44;1.20;99.90
12446;DHT22;6287;50.984;7.022;2023-04-06T05:56:09;1.20;99.90
12446;DHT22;6287;50.984;7.022;2023-04-06T05:58:37;1.30;99.90
12446;DHT22;6287;50.984;7.022;2023-04-06T06:01:03;1.40;99.90
12446;DHT22;6287;50.984;7.022;2023-04-06T06:03:30;1.40;99.90
12446;DHT22;6287;50.984;7.022;2023-04-06T06:06:02;1.50;99.90
12446;DHT22;6287;50.984;7.022;2023-04-06T06:08:31;1.50;99.90
12446;DHT22;6287;50.984;7.022;2023-04-06T06:10:59;1.60;99.90
12446;DHT22;6287;50.984;7.022;2023-04-06T06:13:27;1.70;99.90
12446;DHT22;6287;50.984;7.022;2023-04-06T06:15:52;1.80;99.90
12446;DHT22;6287;50.984;7.022;2023-04-06T06:18:18;1.90;99.90
12446;DHT22;6287;50.984;7.022;2023-04-06T06:20:46;1.90;99.90
12446;DHT22;6287;50.984;7.022;2023-04-06T06:23:11;2.10;99.90
12446;DHT22;6287;50.984;7.022;2023-04-06T06:25:37;2.20;99.90
12446;DHT22;6287;50.984;7.022;2023-04-06T06:28:05;2.30;99.90
12446;DHT22;6287;50.984;7.022;2023-04-06T06:30:33;2.40;99.90
12446;DHT22;6287;50.984;7.022;2023-04-06T06:33:05;2.50;99.90
12446;DHT22;6287;50.984;7.022;2023-04-06T06:35:33;2.70;99.90
12446;DHT22;6287;50.984;7.022;2023-04-06T06:37:59;2.80;99.90
12446;DHT22;6287;50.984;7.022;2023-04-06T06:40:26;3.00;99.90
12446;DHT22;6287;50.984;7.022;2023-04-06T06:42:54;3.10;99.90
12446;DHT22;6287;50.984;7.022;2023-04-06T06:45:22;3.30;99.90
12446;DHT22;6287;50.984;7.022;2023-04-06T06:47:50;3.40;99.90
12446;DHT22;6287;50.984;7.022;2023-04-06T06:50:16;3.60;99.90
12446;DHT22;6287;50.984;7.022;2023-04-06T06:52:42;3.80;99.90
12446;DHT22;6287;50.984;7.022;2023-04-06T06:55:13;4.00;99.90
12446;DHT22;6287;50.984;7.022;2023-04-06T06:57:42;4.10;99.90
12446;DHT22;6287;50.984;7.022;2023-04-06T07:00:10;4.30;99.90
12446;DHT22;6287;50.984;7.022;2023-04-06T07:02:36;4.40;99.90
12446;DHT22;6287;50.984;7.022;2023-04-06T07:05:04;4.60;99.90
12446;DHT22;6287;50.984;7.022;2023-04-06T07:07:33;4.70;99.90
12446;DHT22;6287;50.984;7.022;2023-04-06T07:10:00;4.80;99.90
12446;DHT22;6287;50.984;7.022;2023-04-06T07:12:25;4.90;99.90
12446;DHT22;6287;50.984;7.022;2023-04-06T07:14:51;5.10;99.90
12446;DHT22;6287;50.984;7.022;2023-04-06T07:17:21;5.30;99.90
12446;DHT22;6287;50.984;7.022;2023-04-06T07:19:47;5.50;99.90
12446;DHT22;6287;50.984;7.022;2023-04-06T07:22:15;5.70;99.90
12446;DHT22;6287;50.984;7.022;2023-04-06T07:24:43;5.90;99.90
12446;DHT22;6287;50.984;7.022;2023-04-06T07:27:08;6.10;99.70
12446;DHT22;6287;50.984;7.022;2023-04-06T07:29:37;6.30;99.90
12446;DHT22;6287;50.984;7.022;2023-04-06T07:32:02;6.50;99.50
12446;DHT22;6287;50.984;7.022;2023-04-06T07:34:30;6.70;99.40
12446;DHT22;6287;50.984;7.022;2023-04-06T07:36:56;6.90;98.80
12446;DHT22;6287;50.984;7.022;2023-04-06T07:39:22;7.00;98.60
12446;DHT22;6287;50.984;7.022;2023-04-06T07:41:47;7.20;98.20
12446;DHT22;6287;50.984;7.022;2023-04-06T07:44:13;7.50;98.30
12446;DHT22;6287;50.984;7.022;2023-04-06T07:46:38;7.80;97.30
12446;DHT22;6287;50.984;7.022;2023-04-06T07:49:04;8.00;97.60
12446;DHT22;6287;50.984;7.022;2023-04-06T07:51:30;8.10;96.70
12446;DHT22;6287;50.984;7.022;2023-04-06T07:53:56;8.30;96.50
12446;DHT22;6287;50.984;7.022;2023-04-06T07:56:22;8.50;96.70
12446;DHT22;6287;50.984;7.022;2023-04-06T07:58:51;8.60;96.20
12446;DHT22;6287;50.984;7.022;2023-04-06T08:01:20;8.70;96.00
12446;DHT22;6287;50.984;7.022;2023-04-06T08:03:46;8.90;95.60
12446;DHT22;6287;50.984;7.022;2023-04-06T08:06:14;8.90;95.60
12446;DHT22;6287;50.984;7.022;2023-04-06T08:08:40;8.90;96.20
12446;DHT22;6287;50.984;7.022;2023-04-06T08:11:09;9.00;95.50
12446;DHT22;6287;50.984;7.022;2023-04-06T08:13:37;9.10;95.00
12446;DHT22;6287;50.984;7.022;2023-04-06T08:16:06;9.20;94.90
12446;DHT22;6287;50.984;7.022;2023-04-06T08:18:31;9.30;94.40
12446;DHT22;6287;50.984;7.022;2023-04-06T08:20:57;9.40;94.40
12446;DHT22;6287;50.984;7.022;2023-04-06T08:23:25;9.60;94.90
12446;DHT22;6287;50.984;7.022;2023-04-06T08:25:54;9.70;94.10
12446;DHT22;6287;50.984;7.022;2023-04-06T08:28:21;9.80;94.20
12446;DHT22;6287;50.984;7.022;2023-04-06T08:30:46;9.90;94.10
12446;DHT22;6287;50.984;7.022;2023-04-06T08:33:12;10.00;93.40
12446;DHT22;6287;50.984;7.022;2023-04-06T08:35:42;10.30;92.90
12446;DHT22;6287;50.984;7.022;2023-04-06T08:38:10;10.60;92.90
12446;DHT22;6287;50.984;7.022;2023-04-06T08:40:37;10.80;92.60
12446;DHT22;6287;50.984;7.022;2023-04-06T08:43:03;10.90;92.30
12446;DHT22;6287;50.984;7.022;2023-04-06T08:45:34;11.10;92.00
12446;DHT22;6287;50.984;7.022;2023-04-06T08:48:02;11.10;91.90
12446;DHT22;6287;50.984;7.022;2023-04-06T08:50:30;11.30;91.90
12446;DHT22;6287;50.984;7.022;2023-04-06T08:52:59;11.50;90.60
12446;DHT22;6287;50.984;7.022;2023-04-06T08:55:29;11.70;91.50
12446;DHT22;6287;50.984;7.022;2023-04-06T08:57:58;11.90;90.10
12446;DHT22;6287;50.984;7.022;2023-04-06T09:00:25;12.10;88.70
12446;DHT22;6287;50.984;7.022;2023-04-06T09:02:52;12.20;89.00
12446;DHT22;6287;50.984;7.022;2023-04-06T09:05:24;12.30;89.00
12446;DHT22;6287;50.984;7.022;2023-04-06T09:07:53;12.40;88.50
12446;DHT22;6287;50.984;7.022;2023-04-06T09:10:18;12.50;87.00
12446;DHT22;6287;50.984;7.022;2023-04-06T09:12:45;12.70;89.80
12446;DHT22;6287;50.984;7.022;2023-04-06T09:15:21;13.00;86.40
12446;DHT22;6287;50.984;7.022;2023-04-06T09:17:47;13.00;86.30
12446;DHT22;6287;50.984;7.022;2023-04-06T09:20:15;13.10;85.50
12446;DHT22;6287;50.984;7.022;2023-04-06T09:22:47;13.30;86.30
12446;DHT22;6287;50.984;7.022;2023-04-06T09:25:21;13.50;84.30
12446;DHT22;6287;50.984;7.022;2023-04-06T09:27:48;13.70;84.10
12446;DHT22;6287;50.984;7.022;2023-04-06T09:30:15;13.80;81.90
12446;DHT22;6287;50.984;7.022;2023-04-06T09:33:06;13.80;83.60
12446;DHT22;6287;50.984;7.022;2023-04-06T09:35:34;14.00;84.20
12446;DHT22;6287;50.984;7.022;2023-04-06T09:38:11;14.20;83.10
12446;DHT22;6287;50.984;7.022;2023-04-06T09:40:50;14.40;83.30
12446;DHT22;6287;50.984;7.022;2023-04-06T09:43:26;14.50;81.50
12446;DHT22;6287;50.984;7.022;2023-04-06T09:45:52;14.50;81.20
12446;DHT22;6287;50.984;7.022;2023-04-06T09:48:21;14.50;79.70
12446;DHT22;6287;50.984;7.022;2023-04-06T09:50:54;14.70;81.90
12446;DHT22;6287;50.984;7.022;2023-04-06T09:53:25;14.70;78.80
12446;DHT22;6287;50.984;7.022;2023-04-06T09:55:55;14.60;79.60
12446;DHT22;6287;50.984;7.022;2023-04-06T09:58:24;14.60;79.80
12446;DHT22;6287;50.984;7.022;2023-04-06T10:01:03;14.60;79.80
12446;DHT22;6287;50.984;7.022;2023-04-06T10:06:23;14.50;80.70
12446;DHT22;6287;50.984;7.022;2023-04-06T10:08:57;14.60;79.00
12446;DHT22;6287;50.984;7.022;2023-04-06T10:11:26;14.80;78.20
12446;DHT22;6287;50.984;7.022;2023-04-06T10:13:51;15.00;80.50
12446;DHT22;6287;50.984;7.022;2023-04-06T10:16:17;15.10;79.60
12446;DHT22;6287;50.984;7.022;2023-04-06T10:18:47;15.20;80.00
12446;DHT22;6287;50.984;7.022;2023-04-06T10:21:21;15.20;78.60
12446;DHT22;6287;50.984;7.022;2023-04-06T10:23:59;15.20;76.30
12446;DHT22;6287;50.984;7.022;2023-04-06T10:26:28;15.30;78.40
12446;DHT22;6287;50.984;7.022;2023-04-06T10:28:54;15.40;77.90
12446;DHT22;6287;50.984;7.022;2023-04-06T10:31:27;15.50;77.90
12446;DHT22;6287;50.984;7.022;2023-04-06T10:34:00;15.60;76.50
12446;DHT22;6287;50.984;7.022;2023-04-06T10:36:31;15.60;78.40
12446;DHT22;6287;50.984;7.022;2023-04-06T10:39:00;15.70;78.10
12446;DHT22;6287;50.984;7.022;2023-04-06T10:41:42;15.90;80.10
12446;DHT22;6287;50.984;7.022;2023-04-06T10:44:17;16.10;76.70
12446;DHT22;6287;50.984;7.022;2023-04-06T10:46:54;16.30;73.60
12446;DHT22;6287;50.984;7.022;2023-04-06T10:49:20;16.30;74.00
12446;DHT22;6287;50.984;7.022;2023-04-06T10:51:54;16.40;75.20
12446;DHT22;6287;50.984;7.022;2023-04-06T10:54:24;16.40;73.70
12446;DHT22;6287;50.984;7.022;2023-04-06T10:56:53;16.30;75.20
12446;DHT22;6287;50.984;7.022;2023-04-06T10:59:22;16.40;73.60
12446;DHT22;6287;50.984;7.022;2023-04-06T11:01:50;16.50;72.70
12446;DHT22;6287;50.984;7.022;2023-04-06T11:04:17;16.40;73.50
12446;DHT22;6287;50.984;7.022;2023-04-06T11:06:49;16.40;73.20
12446;DHT22;6287;50.984;7.022;2023-04-06T11:09:28;16.40;71.10
12446;DHT22;6287;50.984;7.022;2023-04-06T11:11:57;16.40;72.10
12446;DHT22;6287;50.984;7.022;2023-04-06T11:14:25;16.40;71.40
12446;DHT22;6287;50.984;7.022;2023-04-06T11:16:53;16.30;69.90
12446;DHT22;6287;50.984;7.022;2023-04-06T11:19:19;16.20;69.50
12446;DHT22;6287;50.984;7.022;2023-04-06T11:21:48;16.30;70.20
12446;DHT22;6287;50.984;7.022;2023-04-06T11:24:24;16.20;70.80
12446;DHT22;6287;50.984;7.022;2023-04-06T11:26:56;16.30;71.20
12446;DHT22;6287;50.984;7.022;2023-04-06T11:29:27;16.40;70.20
12446;DHT22;6287;50.984;7.022;2023-04-06T11:31:58;16.50;69.90
12446;DHT22;6287;50.984;7.022;2023-04-06T11:34:28;16.50;70.40
12446;DHT22;6287;50.984;7.022;2023-04-06T11:37:00;16.60;71.10
12446;DHT22;6287;50.984;7.022;2023-04-06T11:39:28;16.50;69.60
12446;DHT22;6287;50.984;7.022;2023-04-06T11:41:58;16.40;70.20
12446;DHT22;6287;50.984;7.022;2023-04-06T11:47:02;16.20;66.50
12446;DHT22;6287;50.984;7.022;2023-04-06T11:49:31;15.90;67.80
12446;DHT22;6287;50.984;7.022;2023-04-06T11:51:59;16.00;67.60
12446;DHT22;6287;50.984;7.022;2023-04-06T11:54:37;16.00;70.20
12446;DHT22;6287;50.984;7.022;2023-04-06T11:57:04;15.90;69.50
12446;DHT22;6287;50.984;7.022;2023-04-06T11:59:34;15.80;69.40
12446;DHT22;6287;50.984;7.022;2023-04-06T12:02:04;15.70;67.50
12446;DHT22;6287;50.984;7.022;2023-04-06T12:04:32;15.70;68.30
12446;DHT22;6287;50.984;7.022;2023-04-06T12:07:00;15.70;68.10
12446;DHT22;6287;50.984;7.022;2023-04-06T12:09:26;15.70;68.20
12446;DHT22;6287;50.984;7.022;2023-04-06T12:11:53;15.60;68.60
12446;DHT22;6287;50.984;7.022;2023-04-06T12:14:20;15.50;68.00
12446;DHT22;6287;50.984;7.022;2023-04-06T12:16:46;15.50;68.80
12446;DHT22;6287;50.984;7.022;2023-04-06T12:19:12;15.60;72.70
12446;DHT22;6287;50.984;7.022;2023-04-06T12:21:38;15.80;69.80
12446;DHT22;6287;50.984;7.022;2023-04-06T12:24:06;15.90;72.40
12446;DHT22;6287;50.984;7.022;2023-04-06T12:26:32;16.10;71.30
12446;DHT22;6287;50.984;7.022;2023-04-06T12:28:58;16.10;69.20
12446;DHT22;6287;50.984;7.022;2023-04-06T12:31:35;16.00;68.60
12446;DHT22;6287;50.984;7.022;2023-04-06T12:34:03;16.10;69.50
12446;DHT22;6287;50.984;7.022;2023-04-06T12:36:28;16.10;68.30
12446;DHT22;6287;50.984;7.022;2023-04-06T12:38:57;16.10;68.20
12446;DHT22;6287;50.984;7.022;2023-04-06T12:41:23;16.20;69.80
12446;DHT22;6287;50.984;7.022;2023-04-06T12:43:49;16.20;67.40
12446;DHT22;6287;50.984;7.022;2023-04-06T12:46:18;16.20;69.60
12446;DHT22;6287;50.984;7.022;2023-04-06T12:48:46;16.10;66.60
12446;DHT22;6287;50.984;7.022;2023-04-06T12:51:14;15.90;67.40
12446;DHT22;6287;50.984;7.022;2023-04-06T12:53:40;15.80;66.20
12446;DHT22;6287;50.984;7.022;2023-04-06T12:56:16;15.70;69.20
12446;DHT22;6287;50.984;7.022;2023-04-06T12:58:46;15.60;69.50
12446;DHT22;6287;50.984;7.022;2023-04-06T13:01:15;15.70;69.30
12446;DHT22;6287;50.984;7.022;2023-04-06T13:03:41;15.60;69.00
12446;DHT22;6287;50.984;7.022;2023-04-06T13:06:10;15.50;68.70
12446;DHT22;6287;50.984;7.022;2023-04-06T13:08:38;15.30;68.50
12446;DHT22;6287;50.984;7.022;2023-04-06T13:11:05;15.00;68.80
12446;DHT22;6287;50.984;7.022;2023-04-06T13:13:31;15.00;71.70
12446;DHT22;6287;50.984;7.022;2023-04-06T13:16:06;15.10;70.10
12446;DHT22;6287;50.984;7.022;2023-04-06T13:18:33;15.10;69.20
12446;DHT22;6287;50.984;7.022;2023-04-06T13:21:02;15.10;70.80
12446;DHT22;6287;50.984;7.022;2023-04-06T13:23:34;15.20;73.50
12446;DHT22;6287;50.984;7.022;2023-04-06T13:26:08;15.30;73.70
12446;DHT22;6287;50.984;7.022;2023-04-06T13:28:36;15.20;71.70
12446;DHT22;6287;50.984;7.022;2023-04-06T13:31:07;15.10;72.30
12446;DHT22;6287;50.984;7.022;2023-04-06T13:33:36;15.10;73.20
12446;DHT22;6287;50.984;7.022;2023-04-06T13:36:02;15.10;75.10
12446;DHT22;6287;50.984;7.022;2023-04-06T13:38:29;15.00;74.20
12446;DHT22;6287;50.984;7.022;2023-04-06T13:40:55;14.80;74.90
12446;DHT22;6287;50.984;7.022;2023-04-06T13:43:23;14.70;77.30
12446;DHT22;6287;50.984;7.022;2023-04-06T13:45:58;14.70;79.10
12446;DHT22;6287;50.984;7.022;2023-04-06T13:48:25;14.60;80.40
12446;DHT22;6287;50.984;7.022;2023-04-06T13:50:51;14.60;82.50
12446;DHT22;6287;50.984;7.022;2023-04-06T13:53:18;14.60;79.50
12446;DHT22;6287;50.984;7.022;2023-04-06T13:55:43;14.60;80.60
12446;DHT22;6287;50.984;7.022;2023-04-06T13:58:09;14.50;79.40
12446;DHT22;6287;50.984;7.022;2023-04-06T14:00:38;14.10;79.00
12446;DHT22;6287;50.984;7.022;2023-04-06T14:03:06;13.80;79.70
12446;DHT22;6287;50.984;7.022;2023-04-06T14:05:32;13.60;81.10
12446;DHT22;6287;50.984;7.022;2023-04-06T14:08:01;13.30;80.90
12446;DHT22;6287;50.984;7.022;2023-04-06T14:10:27;13.10;82.50
12446;DHT22;6287;50.984;7.022;2023-04-06T14:12:53;13.00;82.70
12446;DHT22;6287;50.984;7.022;2023-04-06T14:15:18;12.80;85.30
12446;DHT22;6287;50.984;7.022;2023-04-06T14:17:44;12.60;86.40
12446;DHT22;6287;50.984;7.022;2023-04-06T14:20:10;12.50;87.50
12446;DHT22;6287;50.984;7.022;2023-04-06T14:22:41;12.40;87.50
12446;DHT22;6287;50.984;7.022;2023-04-06T14:25:08;12.30;88.00
12446;DHT22;6287;50.984;7.022;2023-04-06T14:27:33;12.20;88.60
12446;DHT22;6287;50.984;7.022;2023-04-06T14:30:00;12.10;88.80
12446;DHT22;6287;50.984;7.022;2023-04-06T14:32:29;12.00;90.80
12446;DHT22;6287;50.984;7.022;2023-04-06T14:34:57;12.00;91.20
12446;DHT22;6287;50.984;7.022;2023-04-06T14:37:22;12.00;91.60
12446;DHT22;6287;50.984;7.022;2023-04-06T14:39:48;12.00;91.80
12446;DHT22;6287;50.984;7.022;2023-04-06T14:42:14;12.10;92.50
12446;DHT22;6287;50.984;7.022;2023-04-06T14:44:40;12.10;92.60
12446;DHT22;6287;50.984;7.022;2023-04-06T14:47:09;12.00;93.30
12446;DHT22;6287;50.984;7.022;2023-04-06T14:49:34;12.00;93.90
12446;DHT22;6287;50.984;7.022;2023-04-06T14:52:02;12.00;94.60
12446;DHT22;6287;50.984;7.022;2023-04-06T14:54:28;12.00;96.10
12446;DHT22;6287;50.984;7.022;2023-04-06T14:56:54;12.00;96.40
12446;DHT22;6287;50.984;7.022;2023-04-06T14:59:20;12.00;97.20
12446;DHT22;6287;50.984;7.022;2023-04-06T15:01:45;11.90;98.00
12446;DHT22;6287;50.984;7.022;2023-04-06T15:04:11;11.80;98.30
12446;DHT22;6287;50.984;7.022;2023-04-06T15:06:39;11.60;98.70
12446;DHT22;6287;50.984;7.022;2023-04-06T15:09:05;11.50;99.60
12446;DHT22;6287;50.984;7.022;2023-04-06T15:11:30;11.40;99.70
12446;DHT22;6287;50.984;7.022;2023-04-06T15:13:56;11.30;99.90
12446;DHT22;6287;50.984;7.022;2023-04-06T15:16:23;11.30;99.90
12446;DHT22;6287;50.984;7.022;2023-04-06T15:18:49;11.20;99.90
12446;DHT22;6287;50.984;7.022;2023-04-06T15:21:17;11.10;99.90
12446;DHT22;6287;50.984;7.022;2023-04-06T15:23:45;11.00;99.90
12446;DHT22;6287;50.984;7.022;2023-04-06T15:26:13;10.90;99.90
12446;DHT22;6287;50.984;7.022;2023-04-06T15:28:39;10.80;99.90
12446;DHT22;6287;50.984;7.022;2023-04-06T15:31:15;10.70;99.90
12446;DHT22;6287;50.984;7.022;2023-04-06T15:33:47;10.70;99.90
12446;DHT22;6287;50.984;7.022;2023-04-06T15:36:25;10.50;99.90
12446;DHT22;6287;50.984;7.022;2023-04-06T15:38:56;10.50;99.90
12446;DHT22;6287;50.984;7.022;2023-04-06T15:41:26;10.40;99.90
12446;DHT22;6287;50.984;7.022;2023-04-06T15:43:53;10.30;99.90
12446;DHT22;6287;50.984;7.022;2023-04-06T15:46:22;10.20;99.90
12446;DHT22;6287;50.984;7.022;2023-04-06T15:48:52;10.10;99.90
12446;DHT22;6287;50.984;7.022;2023-04-06T15:51:17;10.10;99.90
12446;DHT22;6287;50.984;7.022;2023-04-06T15:53:45;10.20;99.90
12446;DHT22;6287;50.984;7.022;2023-04-06T15:56:11;10.10;99.90
12446;DHT22;6287;50.984;7.022;2023-04-06T15:58:39;10.00;99.90
12446;DHT22;6287;50.984;7.022;2023-04-06T16:01:11;9.90;99.90
12446;DHT22;6287;50.984;7.022;2023-04-06T16:03:37;9.80;99.90